Time;durP1;ratioP1;P1;durP2;ratioP2;P2;SDS_P1;SDS_P2;PMS_P1;PMS_P2;Temp;Humidity;BMP_temperature;BMP_pressure;BME280_temperature;BME280_humidity;BME280_pressure;Samples;Min_cycle;Max_cycle;Signal;HPM_P1;HPM_P2
2024/01/25 00:00:21;;;;;;;24.85;4.78;;;12.10;99.90;;;11.57;100.00;102866.06;4201609;28;20116;-72
2024/01/25 00:02:22;;;;;;;15.05;3.17;;;12.10;99.90;;;11.60;100.00;102852.63;4201506;28;20032;-72
2024/01/25 00:04:23;;;;;;;21.33;3.60;;;12.10;99.90;;;11.61;100.00;102845.53;4201599;28;20025;-72
2024/01/25 00:06:25;;;;;;;19.17;4.10;;;12.10;99.90;;;11.60;100.00;102857.06;4211199;28;20021;-72
2024/01/25 00:08:26;;;;;;;26.67;4.35;;;12.10;99.90;;;11.63;100.00;102864.78;4217010;28;20028;-72
2024/01/25 00:10:27;;;;;;;23.73;3.97;;;12.10;99.90;;;11.59;100.00;102842.16;4201375;28;20021;-72
2024/01/25 00:12:27;;;;;;;16.45;4.15;;;12.10;99.90;;;11.59;100.00;102835.06;4217129;28;20519;-72
2024/01/25 00:14:28;;;;;;;24.00;4.05;;;12.10;99.90;;;11.57;100.00;102831.69;4203125;28;20028;-72
2024/01/25 00:16:29;;;;;;;23.63;4.88;;;12.10;99.90;;;11.58;100.00;102832.56;4222558;28;20036;-73
2024/01/25 00:18:30;;;;;;;22.80;4.18;;;12.10;99.90;;;11.53;100.00;102832.03;4204697;28;20028;-72
2024/01/25 00:20:31;;;;;;;22.70;3.90;;;12.00;99.90;;;11.52;100.00;102833.00;4204791;28;20031;-72
2024/01/25 00:22:32;;;;;;;22.50;5.15;;;12.00;99.90;;;11.46;100.00;102820.22;4220287;28;20564;-72
2024/01/25 00:24:33;;;;;;;29.98;5.18;;;12.00;99.90;;;11.43;100.00;102834.50;4203436;28;20032;-72
2024/01/25 00:26:34;;;;;;;17.17;3.42;;;12.00;99.90;;;11.40;100.00;102828.59;4204658;28;20033;-72
2024/01/25 00:28:35;;;;;;;27.65;5.10;;;11.90;99.90;;;11.35;100.00;102834.19;4204621;28;20032;-72
2024/01/25 00:30:35;;;;;;;17.33;4.28;;;11.90;99.90;;;11.30;100.00;102825.75;4204578;28;20024;-72
2024/01/25 00:32:36;;;;;;;25.38;4.75;;;11.80;99.90;;;11.25;100.00;102827.06;4204465;28;20039;-72
2024/01/25 00:34:37;;;;;;;25.08;3.30;;;11.80;99.90;;;11.21;100.00;102826.41;4220004;28;20511;-72
2024/01/25 00:36:39;;;;;;;16.60;3.72;;;11.70;99.90;;;11.18;100.00;102839.00;4214212;28;20037;-72
2024/01/25 00:38:40;;;;;;;20.95;4.00;;;11.70;99.90;;;11.14;100.00;102832.25;4211781;28;20474;-72
2024/01/25 00:40:41;;;;;;;17.45;3.65;;;11.60;99.90;;;11.13;100.00;102828.78;4210367;28;20103;-72
2024/01/25 00:42:48;;;;;;;13.07;3.13;;;11.70;99.90;;;11.10;100.00;102826.34;4204281;28;20403;-72
2024/01/25 00:44:50;;;;;;;19.30;3.35;;;11.60;99.90;;;11.07;100.00;102821.28;4219998;28;20024;-72
2024/01/25 00:46:53;;;;;;;25.80;5.80;;;11.60;99.90;;;11.09;100.00;102817.56;4211171;28;20044;-72
2024/01/25 00:48:54;;;;;;;21.83;4.03;;;11.60;99.90;;;11.11;100.00;102820.09;4221007;28;20032;-72
2024/01/25 00:50:56;;;;;;;24.05;3.53;;;11.60;99.90;;;11.07;100.00;102818.63;4219610;28;20425;-72
2024/01/25 00:52:57;;;;;;;16.40;2.55;;;11.60;99.90;;;11.02;100.00;102818.94;4221129;28;20558;-72
2024/01/25 00:54:58;;;;;;;18.63;3.53;;;11.50;99.90;;;11.00;100.00;102820.00;4222267;28;20024;-72
2024/01/25 00:56:59;;;;;;;13.07;3.25;;;11.50;99.90;;;11.00;100.00;102823.50;4213506;28;20033;-72
2024/01/25 00:59:00;;;;;;;16.45;4.40;;;11.50;99.90;;;10.97;100.00;102817.59;4217700;28;20129;-72
2024/01/25 01:01:02;;;;;;;13.05;3.35;;;11.50;99.90;;;10.96;100.00;102811.47;4219696;28;20051;-72
2024/01/25 01:03:05;;;;;;;15.77;3.35;;;11.50;99.90;;;10.97;100.00;102813.16;4219880;28;20093;-72
2024/01/25 01:05:07;;;;;;;17.42;4.50;;;11.50;99.90;;;10.97;100.00;102809.66;4222801;28;20016;-72
2024/01/25 01:07:09;;;;;;;19.02;3.20;;;11.50;99.90;;;10.95;100.00;102806.31;4207897;28;20058;-72
2024/01/25 01:09:10;;;;;;;24.98;4.85;;;11.50;99.90;;;10.92;100.00;102809.16;4219771;28;20020;-72
2024/01/25 01:11:11;;;;;;;21.55;4.03;;;11.40;99.90;;;10.90;100.00;102803.97;4204011;28;20051;-72
2024/01/25 01:13:12;;;;;;;15.23;3.40;;;11.40;99.90;;;10.92;100.00;102803.88;4219510;28;20032;-72
2024/01/25 01:15:12;;;;;;;22.67;4.18;;;11.40;99.90;;;10.89;100.00;102798.81;4204383;28;20081;-72
2024/01/25 01:17:14;;;;;;;19.83;4.20;;;11.40;99.90;;;10.93;100.00;102801.13;4203886;28;20112;-72
2024/01/25 01:19:15;;;;;;;19.98;3.70;;;11.40;99.90;;;10.93;100.00;102801.13;4219309;28;20031;-72
2024/01/25 01:21:16;;;;;;;22.83;4.05;;;11.40;99.90;;;10.87;100.00;102806.81;4212225;28;20016;-72
2024/01/25 01:23:16;;;;;;;18.48;4.30;;;11.40;99.90;;;10.79;100.00;102801.25;4203707;28;20024;-72
2024/01/25 01:25:17;;;;;;;22.75;5.25;;;11.30;99.90;;;10.73;100.00;102806.09;4210303;28;20065;-72
2024/01/25 01:27:20;;;;;;;16.25;3.50;;;11.30;99.90;;;10.74;100.00;102810.44;4228630;28;20153;-72
2024/01/25 01:29:21;;;;;;;16.25;3.97;;;11.20;99.90;;;10.72;100.00;102807.88;4203679;28;20017;-72
2024/01/25 01:31:22;;;;;;;23.73;4.25;;;11.20;99.90;;;10.69;100.00;102791.44;4219067;28;20040;-72
2024/01/25 01:33:23;;;;;;;16.38;3.75;;;11.20;99.90;;;10.72;100.00;102799.16;4203687;28;20020;-72
2024/01/25 01:35:24;;;;;;;20.67;3.78;;;11.20;99.90;;;10.72;100.00;102807.06;4222984;28;20028;-72
2024/01/25 01:37:24;;;;;;;14.00;2.80;;;11.20;99.90;;;10.65;100.00;102796.09;4209976;28;20025;-72
2024/01/25 01:39:26;;;;;;;22.77;4.70;;;11.20;99.90;;;10.65;100.00;102796.09;4232965;28;20019;-72
2024/01/25 01:41:27;;;;;;;23.88;4.57;;;11.20;99.90;;;10.61;100.00;102805.16;4209054;28;20419;-72
2024/01/25 01:43:27;;;;;;;18.25;3.60;;;11.10;99.90;;;10.57;100.00;102805.50;4219105;28;20028;-72
2024/01/25 01:45:28;;;;;;;20.75;3.70;;;11.10;99.90;;;10.53;100.00;102797.78;4203645;28;20017;-72
2024/01/25 01:47:29;;;;;;;11.57;3.13;;;11.10;99.90;;;10.55;100.00;102800.31;4229086;28;20038;-72
2024/01/25 01:49:30;;;;;;;22.52;3.50;;;11.10;99.90;;;10.56;100.00;102807.28;4203488;28;20025;-72
2024/01/25 01:51:32;;;;;;;12.45;3.33;;;11.10;99.90;;;10.57;100.00;102808.97;4218748;28;20032;-72
2024/01/25 01:53:34;;;;;;;16.50;3.67;;;11.10;99.90;;;10.54;100.00;102794.16;4203332;28;20115;-72
2024/01/25 01:55:36;;;;;;;25.65;4.47;;;11.10;99.90;;;10.61;100.00;102804.31;4214317;28;20027;-72
2024/01/25 01:57:37;;;;;;;22.00;3.60;;;11.10;99.90;;;10.63;100.00;102798.00;4203600;28;20032;-72
2024/01/25 01:59:38;;;;;;;20.60;3.90;;;11.10;99.90;;;10.68;100.00;102800.31;4218796;28;20063;-72
2024/01/25 02:01:39;;;;;;;21.08;5.93;;;11.20;99.90;;;10.72;100.00;102796.50;4203303;28;20392;-72
2024/01/25 02:03:40;;;;;;;22.48;5.28;;;11.20;99.90;;;10.72;100.00;102794.69;4218613;28;20062;-72
2024/01/25 02:05:41;;;;;;;22.23;4.38;;;11.20;99.90;;;10.72;100.00;102804.44;4205448;28;20411;-72
2024/01/25 02:07:42;;;;;;;18.77;3.45;;;11.20;99.90;;;10.69;100.00;102805.50;4218705;28;20036;-72
2024/01/25 02:09:43;;;;;;;23.20;5.25;;;11.20;99.90;;;10.66;100.00;102796.94;4201860;28;20028;-72
2024/01/25 02:11:44;;;;;;;11.48;3.53;;;11.20;99.90;;;10.71;100.00;102803.59;4201799;28;20032;-72
2024/01/25 02:13:45;;;;;;;25.60;5.82;;;11.20;99.90;;;10.71;100.00;102800.09;4202842;28;20029;-72
2024/01/25 02:15:46;;;;;;;20.63;5.53;;;11.20;99.90;;;10.68;100.00;102792.38;4206451;28;20021;-73
2024/01/25 02:17:47;;;;;;;17.75;3.75;;;11.20;99.90;;;10.75;100.00;102804.22;4202909;28;20025;-72
2024/01/25 02:19:48;;;;;;;9.02;2.78;;;11.30;99.90;;;10.77;100.00;102797.88;4202885;28;20028;-72
2024/01/25 02:21:51;;;;;;;16.95;4.05;;;11.30;99.90;;;10.79;100.00;102789.84;4202575;28;20032;-73
2024/01/25 02:23:51;;;;;;;18.30;4.18;;;11.30;99.90;;;10.79;100.00;102790.69;4218531;28;20508;-72
2024/01/25 02:25:53;;;;;;;16.90;4.05;;;11.30;99.90;;;10.81;100.00;102785.31;4217703;28;20027;-72
2024/01/25 02:27:53;;;;;;;10.50;3.00;;;11.30;99.90;;;10.81;100.00;102788.78;4213367;28;20032;-73
2024/01/25 02:29:54;;;;;;;13.50;3.38;;;11.30;99.90;;;10.81;100.00;102790.59;4218312;28;20016;-72
2024/01/25 02:31:55;;;;;;;16.02;3.63;;;11.30;99.90;;;10.82;100.00;102786.97;4201650;28;20028;-72
2024/01/25 02:33:56;;;;;;;7.85;2.88;;;11.30;99.90;;;10.83;100.00;102786.03;4202714;28;20021;-72
2024/01/25 02:35:57;;;;;;;12.50;2.70;;;11.30;99.90;;;10.85;100.00;102790.25;4218152;28;20034;-73
2024/01/25 02:37:58;;;;;;;16.65;3.05;;;11.40;99.90;;;10.84;100.00;102796.47;4208395;28;20080;-72
2024/01/25 02:39:58;;;;;;;14.70;3.08;;;11.40;99.90;;;10.83;100.00;102797.44;4213225;28;20029;-72
2024/01/25 02:41:59;;;;;;;13.07;4.00;;;11.40;99.90;;;10.85;100.00;102797.31;4202573;28;20461;-72
2024/01/25 02:44:01;;;;;;;13.18;3.83;;;11.30;99.90;;;10.82;100.00;102785.19;4202468;28;20021;-73
2024/01/25 02:46:01;;;;;;;16.45;3.92;;;11.40;99.90;;;10.82;100.00;102774.63;4221441;27;20522;-72
2024/01/25 02:48:03;;;;;;;17.75;3.65;;;11.30;99.90;;;10.81;100.00;102775.56;4202393;28;20039;-72
2024/01/25 02:50:05;;;;;;;11.77;3.95;;;11.30;99.90;;;10.80;100.00;102784.47;4202255;28;20078;-72
2024/01/25 02:52:05;;;;;;;13.13;3.40;;;11.30;99.90;;;10.83;100.00;102775.47;4202501;28;20067;-72
2024/01/25 02:54:06;;;;;;;22.55;4.05;;;11.40;99.90;;;10.82;100.00;102768.50;4202235;28;20399;-73
2024/01/25 02:56:07;;;;;;;21.35;4.20;;;11.30;99.90;;;10.82;100.00;102774.63;4222393;28;20426;-72
2024/01/25 02:58:08;;;;;;;18.70;4.25;;;11.30;99.90;;;10.79;100.00;102766.06;4202255;28;20029;-72
2024/01/25 03:00:10;;;;;;;15.98;4.05;;;11.30;99.90;;;10.75;100.00;102762.81;4202207;28;20381;-73
2024/01/25 03:02:11;;;;;;;79.82;6.50;;;11.30;99.90;;;10.79;100.00;102766.94;4202144;28;20059;-72
2024/01/25 03:04:12;;;;;;;27.63;4.35;;;11.30;99.90;;;10.76;100.00;102759.22;4202164;28;20475;-72
2024/01/25 03:06:12;;;;;;;41.78;5.18;;;11.30;99.90;;;10.75;100.00;102760.16;4205897;28;20558;-72
2024/01/25 03:08:13;;;;;;;23.05;4.18;;;11.30;99.90;;;10.76;100.00;102758.38;4217690;28;20043;-72
2024/01/25 03:10:14;;;;;;;53.08;5.07;;;11.30;99.90;;;10.75;100.00;102754.88;4201957;28;20033;-72
2024/01/25 03:12:15;;;;;;;53.13;6.00;;;11.30;99.90;;;10.74;100.00;102758.50;4202179;28;20024;-72
2024/01/25 03:14:16;;;;;;;19.88;3.67;;;11.30;99.90;;;10.73;100.00;102751.50;4202058;28;20032;-72
2024/01/25 03:16:17;;;;;;;6.95;2.67;;;11.30;99.90;;;10.74;100.00;102744.44;4227754;28;20027;-72
2024/01/25 03:18:17;;;;;;;18.90;4.13;;;11.30;99.90;;;10.75;100.00;102746.97;4204597;28;20021;-72
2024/01/25 03:20:18;;;;;;;16.02;3.92;;;11.30;99.90;;;10.75;100.00;102743.50;4201875;28;20028;-72
2024/01/25 03:22:19;;;;;;;26.20;4.10;;;11.30;99.90;;;10.75;100.00;102740.88;4217575;28;20024;-72
2024/01/25 03:24:21;;;;;;;16.25;3.67;;;11.30;99.90;;;10.72;100.00;102738.44;4220018;27;20036;-72
2024/01/25 03:26:22;;;;;;;8.23;3.35;;;11.30;99.90;;;10.71;100.00;102739.38;4227920;28;20039;-72
2024/01/25 03:28:23;;;;;;;6.32;3.05;;;11.20;99.90;;;10.70;100.00;102743.81;4204069;28;20023;-72
2024/01/25 03:30:24;;;;;;;12.90;4.00;;;11.20;99.90;;;10.65;100.00;102743.31;4218659;28;20017;-72
2024/01/25 03:32:24;;;;;;;8.85;3.75;;;11.20;99.90;;;10.68;100.00;102751.00;4217406;28;20081;-72
2024/01/25 03:34:25;;;;;;;10.48;3.20;;;11.20;99.90;;;10.67;100.00;102746.66;4218577;28;20042;-72
2024/01/25 03:36:26;;;;;;;10.88;3.60;;;11.20;99.90;;;10.70;100.00;102753.53;4223610;28;20523;-72
2024/01/25 03:38:27;;;;;;;6.82;2.97;;;11.20;99.90;;;10.72;100.00;102749.00;4208614;28;20391;-72
2024/01/25 03:40:28;;;;;;;11.15;3.88;;;11.20;99.90;;;10.75;100.00;102754.88;4209480;28;20024;-72
2024/01/25 03:42:29;;;;;;;8.43;3.25;;;11.20;99.90;;;10.75;100.00;102752.25;4202898;28;20022;-73
2024/01/25 03:44:29;;;;;;;12.40;3.33;;;11.30;99.90;;;10.76;100.00;102739.91;4229246;28;20115;-72
2024/01/25 03:46:30;;;;;;;13.10;3.55;;;11.30;99.90;;;10.77;100.00;102725.75;4217190;28;20048;-72
2024/01/25 03:48:31;;;;;;;5.10;3.30;;;11.30;99.90;;;10.79;100.00;102737.88;4201536;28;20021;-72
2024/01/25 03:50:32;;;;;;;6.20;3.22;;;11.30;99.90;;;10.79;100.00;102731.75;4201562;28;20025;-72
2024/01/25 03:52:33;;;;;;;7.60;3.17;;;11.30;99.90;;;10.79;100.00;102734.41;4201645;28;20021;-72
2024/01/25 03:54:34;;;;;;;15.90;4.15;;;11.30;99.90;;;10.78;100.00;102733.53;4201759;28;20017;-72
2024/01/25 03:56:35;;;;;;;25.83;5.38;;;11.30;99.90;;;10.77;100.00;102731.88;4209264;28;20027;-72
2024/01/25 03:58:36;;;;;;;5.53;3.40;;;11.30;99.90;;;10.77;100.00;102728.38;4201719;28;20476;-72
2024/01/25 04:00:37;;;;;;;3.80;2.90;;;11.30;99.90;;;10.76;100.00;102724.91;4201473;28;20078;-72
2024/01/25 04:02:37;;;;;;;9.77;3.65;;;11.30;99.90;;;10.79;100.00;102721.19;4201887;28;20043;-72
2024/01/25 04:04:38;;;;;;;5.20;3.10;;;11.30;99.90;;;10.78;100.00;102720.34;4201659;28;20111;-72
2024/01/25 04:06:44;;;;;;;11.88;3.83;;;11.30;99.90;;;10.77;100.00;102707.28;4204720;28;20032;-72
2024/01/25 04:08:44;;;;;;;7.45;3.30;;;11.30;99.90;;;10.77;100.00;102709.91;4217051;28;20462;-72
2024/01/25 04:10:45;;;;;;;8.63;3.47;;;11.30;99.90;;;10.76;100.00;102718.78;4201873;28;20029;-72
2024/01/25 04:12:46;;;;;;;7.85;3.88;;;11.30;99.90;;;10.74;100.00;102715.41;4201560;28;20033;-72
2024/01/25 04:14:47;;;;;;;13.20;4.18;;;11.30;99.90;;;10.69;100.00;102717.53;4201510;28;20488;-72
2024/01/25 04:16:49;;;;;;;12.13;3.83;;;11.20;99.90;;;10.67;100.00;102722.06;4227519;28;20110;-72
2024/01/25 04:18:49;;;;;;;12.40;4.75;;;11.20;99.90;;;10.62;100.00;102716.28;4217138;28;20020;-72
2024/01/25 04:20:50;;;;;;;8.32;4.72;;;11.20;99.90;;;10.57;100.00;102713.97;4201313;28;20029;-73
2024/01/25 04:22:51;;;;;;;13.43;4.88;;;11.10;99.90;;;10.55;100.00;102719.34;4201397;28;20028;-72
2024/01/25 04:24:52;;;;;;;8.13;4.43;;;11.10;99.90;;;10.51;100.00;102711.75;4201454;28;20029;-73
2024/01/25 04:26:53;;;;;;;13.00;5.50;;;11.10;99.90;;;10.49;100.00;102716.28;4227785;28;20032;-72
2024/01/25 04:28:54;;;;;;;8.00;4.35;;;11.10;99.90;;;10.47;100.00;102718.19;4201445;28;20035;-72
2024/01/25 04:30:55;;;;;;;9.52;5.18;;;11.00;99.90;;;10.45;100.00;102720.13;4201446;28;20035;-72
2024/01/25 04:32:55;;;;;;;12.45;5.32;;;11.00;99.90;;;10.45;100.00;102709.56;4201410;28;20033;-72
2024/01/25 04:34:56;;;;;;;13.43;4.80;;;11.00;99.90;;;10.42;100.00;102699.22;4201021;28;20514;-72
2024/01/25 04:36:57;;;;;;;12.93;5.88;;;11.00;99.90;;;10.40;100.00;102701.09;4225323;28;20435;-72
2024/01/25 04:38:58;;;;;;;8.40;4.95;;;10.90;99.90;;;10.36;100.00;102707.56;4210136;28;20134;-72
2024/01/25 04:40:59;;;;;;;13.80;6.05;;;10.90;99.90;;;10.32;100.00;102701.66;4203301;28;20033;-72
2024/01/25 04:43:00;;;;;;;10.88;5.03;;;10.90;99.90;;;10.31;100.00;102702.59;4201331;28;20070;-72
2024/01/25 04:45:01;;;;;;;13.45;5.03;;;10.90;99.90;;;10.27;100.00;102690.59;4203804;28;20427;-72
2024/01/25 04:47:01;;;;;;;13.20;5.18;;;10.80;99.90;;;10.25;100.00;102692.47;4212153;28;20468;-72
2024/01/25 04:49:03;;;;;;;10.45;5.20;;;10.80;99.90;;;10.19;100.00;102692.03;4201132;28;20032;-72
2024/01/25 04:51:04;;;;;;;10.68;5.30;;;10.70;99.90;;;10.08;100.00;102674.28;4201083;28;20447;-72
2024/01/25 04:53:05;;;;;;;12.40;5.57;;;10.70;99.90;;;10.07;100.00;102683.16;4201305;28;20032;-72
2024/01/25 04:55:07;;;;;;;14.75;6.10;;;10.60;99.90;;;9.98;100.00;102670.59;4216889;28;20479;-72
2024/01/25 04:57:08;;;;;;;11.07;5.28;;;10.60;99.90;;;9.94;100.00;102674.41;4206694;28;20392;-72
2024/01/25 04:59:09;;;;;;;13.25;6.93;;;10.50;99.90;;;9.93;100.00;102676.19;4201072;28;20028;-72
2024/01/25 05:01:11;;;;;;;15.98;6.75;;;10.60;99.90;;;9.91;100.00;102670.19;4203168;28;20021;-72
2024/01/25 05:03:12;;;;;;;12.32;6.15;;;10.50;99.90;;;9.89;100.00;102664.16;4204097;28;20028;-72
2024/01/25 05:05:13;;;;;;;14.90;6.80;;;10.50;99.90;;;9.88;100.00;102661.66;4219301;28;20110;-72
2024/01/25 05:07:13;;;;;;;13.80;6.57;;;10.40;99.90;;;9.84;100.00;102660.16;4204488;28;20111;-72
2024/01/25 05:09:14;;;;;;;21.02;8.75;;;10.40;99.90;;;9.81;100.00;102661.22;4204056;28;20506;-72
2024/01/25 05:11:15;;;;;;;18.92;8.55;;;10.40;99.90;;;9.82;100.00;102655.00;4204261;28;20133;-72
2024/01/25 05:13:16;;;;;;;18.13;8.20;;;10.40;99.90;;;9.86;100.00;102652.97;4219550;28;20024;-72
2024/01/25 05:15:17;;;;;;;46.97;11.35;;;10.40;99.90;;;9.87;100.00;102649.41;4203827;28;20039;-72
2024/01/25 05:17:18;;;;;;;35.03;9.23;;;10.50;99.90;;;9.88;100.00;102657.22;4230995;28;20024;-72
2024/01/25 05:19:18;;;;;;;16.33;7.85;;;10.40;99.90;;;9.90;100.00;102650.03;4202886;28;20035;-72
2024/01/25 05:21:19;;;;;;;35.17;10.15;;;10.50;99.90;;;9.94;100.00;102640.97;4203616;28;20032;-72
2024/01/25 05:23:20;;;;;;;47.00;12.57;;;10.50;99.90;;;9.92;100.00;102632.31;4203665;28;20036;-72
2024/01/25 05:25:21;;;;;;;40.40;11.20;;;10.50;99.90;;;9.97;100.00;102632.84;4212707;28;20474;-72
2024/01/25 05:27:23;;;;;;;33.58;11.75;;;10.60;99.90;;;9.97;100.00;102629.38;4211170;28;20029;-72
2024/01/25 05:29:24;;;;;;;46.22;12.55;;;10.50;99.90;;;9.93;100.00;102617.34;4203734;28;20078;-72
2024/01/25 05:31:24;;;;;;;21.25;9.82;;;10.50;99.90;;;9.91;100.00;102620.09;4219117;28;20028;-72
2024/01/25 05:33:25;;;;;;;12.57;8.05;;;10.50;99.90;;;9.85;100.00;102610.00;4213572;28;20086;-72
2024/01/25 05:35:26;;;;;;;19.25;9.43;;;10.40;99.90;;;9.77;100.00;102607.00;4212355;28;20029;-72
2024/01/25 05:37:27;;;;;;;24.30;8.93;;;10.40;99.90;;;9.71;100.00;102602.16;4213681;28;20033;-72
2024/01/25 05:39:28;;;;;;;32.88;10.82;;;10.30;99.90;;;9.67;100.00;102613.88;4216766;28;20483;-72
2024/01/25 05:41:30;;;;;;;29.00;9.63;;;10.30;99.90;;;9.66;100.00;102619.22;4203819;28;20498;-73
2024/01/25 05:43:30;;;;;;;29.13;8.80;;;10.20;99.90;;;9.67;100.00;102615.66;4203543;28;20107;-72
2024/01/25 05:45:31;;;;;;;32.50;9.32;;;10.30;99.90;;;9.65;100.00;102613.13;4211393;28;20016;-72
2024/01/25 05:47:32;;;;;;;35.45;9.68;;;10.20;99.90;;;9.68;100.00;102620.81;4206889;28;20033;-72
2024/01/25 05:49:33;;;;;;;87.75;13.32;;;10.30;99.90;;;9.69;100.00;102622.50;4211890;28;20024;-72
2024/01/25 05:51:35;;;;;;;41.78;9.18;;;10.30;99.90;;;9.72;100.00;102626.72;4218729;28;20028;-72
2024/01/25 05:53:36;;;;;;;13.07;6.07;;;10.30;99.90;;;9.72;100.00;102630.22;4203387;28;20029;-72
2024/01/25 05:55:37;;;;;;;37.30;9.05;;;10.30;99.90;;;9.68;100.00;102625.22;4206558;28;20027;-72
2024/01/25 05:57:38;;;;;;;64.28;11.02;;;10.20;99.90;;;9.68;100.00;102631.34;4203598;28;20039;-72
2024/01/25 05:59:39;;;;;;;29.88;8.13;;;10.30;99.90;;;9.69;100.00;102638.31;4218888;28;20019;-72
2024/01/25 06:01:40;;;;;;;20.67;7.63;;;10.30;99.90;;;9.68;100.00;102634.00;4203234;28;20037;-72
2024/01/25 06:03:40;;;;;;;29.10;8.40;;;10.20;99.90;;;9.68;100.00;102636.63;4201803;28;20545;-72
2024/01/25 06:05:41;;;;;;;25.58;7.82;;;10.30;99.90;;;9.72;100.00;102635.47;4207621;28;20414;-72
2024/01/25 06:07:42;;;;;;;16.23;7.65;;;10.30;99.90;;;9.73;100.00;102631.91;4223900;28;20059;-72
2024/01/25 06:09:43;;;;;;;34.97;8.50;;;10.30;99.90;;;9.73;100.00;102628.41;4218748;28;20032;-72
2024/01/25 06:11:44;;;;;;;18.40;7.10;;;10.30;99.90;;;9.74;100.00;102628.31;4202878;28;20028;-72
2024/01/25 06:13:45;;;;;;;12.45;6.25;;;10.30;99.90;;;9.78;100.00;102628.94;4202850;28;20560;-72
2024/01/25 06:15:46;;;;;;;32.50;9.18;;;10.30;99.90;;;9.80;100.00;102627.88;4208605;28;20035;-72
2024/01/25 06:17:46;;;;;;;33.58;8.60;;;10.30;99.90;;;9.79;100.00;102626.22;4216475;28;20032;-72
2024/01/25 06:19:47;;;;;;;16.17;6.32;;;10.40;99.90;;;9.87;100.00;102633.59;4202724;28;20036;-72
2024/01/25 06:21:48;;;;;;;22.48;8.10;;;10.40;99.90;;;9.87;100.00;102628.31;4202741;28;20023;-72
2024/01/25 06:23:49;;;;;;;25.38;8.20;;;10.40;99.90;;;9.87;100.00;102633.59;4202950;28;20032;-72
2024/01/25 06:25:50;;;;;;;27.45;8.98;;;10.40;99.90;;;9.89;100.00;102637.81;4209310;28;20011;-72
2024/01/25 06:27:51;;;;;;;27.27;7.43;;;10.40;99.90;;;9.89;100.00;102643.06;4213028;28;20031;-72
2024/01/25 06:29:51;;;;;;;34.17;8.90;;;10.40;99.90;;;9.87;100.00;102638.84;4202616;28;20025;-72
2024/01/25 06:31:52;;;;;;;28.15;8.40;;;10.40;99.90;;;9.88;100.00;102641.41;4202869;28;20036;-72
2024/01/25 06:33:53;;;;;;;76.40;12.63;;;10.40;99.90;;;9.85;100.00;102635.50;4202945;28;20031;-72
2024/01/25 06:35:57;;;;;;;12.77;7.22;;;10.40;99.90;;;9.87;100.00;102641.50;4209610;28;20031;-72
2024/01/25 06:37:58;;;;;;;11.07;7.13;;;10.40;99.90;;;9.86;100.00;102632.75;4206465;28;20035;-72
2024/01/25 06:39:59;;;;;;;10.35;6.55;;;10.40;99.90;;;9.85;100.00;102633.72;4214518;28;20107;-72
2024/01/25 06:42:00;;;;;;;12.73;7.13;;;10.40;99.90;;;9.83;100.00;102632.94;4202550;28;20024;-72
2024/01/25 06:44:01;;;;;;;30.40;9.40;;;10.40;99.90;;;9.83;100.00;102627.69;4218195;28;20388;-72
2024/01/25 06:46:02;;;;;;;19.63;8.20;;;10.40;99.90;;;9.79;100.00;102620.09;4215115;28;20028;-72
2024/01/25 06:48:03;;;;;;;19.08;7.45;;;10.40;99.90;;;9.84;100.00;102629.38;4202367;28;20067;-72
2024/01/25 06:50:04;;;;;;;25.75;9.40;;;10.40;99.90;;;9.81;100.00;102618.19;4217689;28;20170;-72
2024/01/25 06:52:05;;;;;;;15.05;7.30;;;10.40;99.90;;;9.74;100.00;102620.41;4202353;28;20605;-72
2024/01/25 06:54:06;;;;;;;10.80;6.65;;;10.30;99.90;;;9.69;100.00;102609.34;4202333;28;20016;-72
2024/01/25 06:56:07;;;;;;;8.80;5.40;;;10.30;99.90;;;9.66;100.00;102614.81;4204854;28;20090;-72
2024/01/25 06:58:08;;;;;;;16.08;7.40;;;10.30;99.90;;;9.60;100.00;102615.22;4202240;28;20074;-72
2024/01/25 07:00:12;;;;;;;12.35;6.20;;;10.20;99.90;;;9.59;100.00;102621.44;4202226;28;20033;-72
2024/01/25 07:02:13;;;;;;;21.83;7.60;;;10.20;99.90;;;9.56;100.00;102616.38;4202217;28;20434;-72
2024/01/25 07:04:14;;;;;;;13.20;7.15;;;10.20;99.90;;;9.53;100.00;102619.22;4202259;28;20058;-72
2024/01/25 07:06:15;;;;;;;14.65;7.32;;;10.20;99.90;;;9.57;100.00;102617.22;4223644;28;20024;-72
2024/01/25 07:08:16;;;;;;;26.15;7.80;;;10.10;99.90;;;9.59;100.00;102613.53;4207125;28;20043;-72
2024/01/25 07:10:16;;;;;;;14.50;7.80;;;10.20;99.90;;;9.60;100.00;102617.03;4201962;28;20038;-72
2024/01/25 07:12:17;;;;;;;20.10;7.53;;;10.20;99.90;;;9.52;100.00;102612.28;4202323;28;20028;-72
2024/01/25 07:14:18;;;;;;;13.95;8.18;;;10.10;99.90;;;9.43;100.00;102612.91;4202156;28;20032;-72
2024/01/25 07:16:19;;;;;;;9.07;6.28;;;10.00;99.90;;;9.37;100.00;102610.69;4215059;28;20035;-72
2024/01/25 07:18:21;;;;;;;12.93;7.00;;;10.00;99.90;;;9.33;100.00;102614.44;4208549;28;20024;-72
2024/01/25 07:20:21;;;;;;;17.67;6.57;;;9.90;99.90;;;9.32;100.00;102620.66;4201961;28;20421;-72
2024/01/25 07:22:22;;;;;;;15.95;6.30;;;9.90;99.90;;;9.26;100.00;102611.38;4201891;28;20103;-72
2024/01/25 07:24:23;;;;;;;13.35;7.20;;;9.90;99.90;;;9.25;100.00;102614.13;4201707;28;20028;-72
2024/01/25 07:26:24;;;;;;;12.43;6.30;;;9.90;99.90;;;9.31;100.00;102624.25;4215986;28;20024;-72
2024/01/25 07:28:25;;;;;;;15.00;7.32;;;9.90;99.90;;;9.38;100.00;102621.09;4203739;28;20028;-72
2024/01/25 07:30:26;;;;;;;15.90;7.18;;;9.90;99.90;;;9.41;100.00;102615.63;4215746;28;20021;-72
2024/01/25 07:32:27;;;;;;;14.90;6.93;;;10.00;99.90;;;9.45;100.00;102617.13;4202049;28;20032;-72
2024/01/25 07:34:27;;;;;;;19.90;8.07;;;10.00;99.90;;;9.47;100.00;102611.72;4226720;27;20025;-72
2024/01/25 07:36:29;;;;;;;16.02;7.78;;;10.10;99.90;;;9.50;100.00;102608.06;4208827;28;20028;-72
2024/01/25 07:38:30;;;;;;;16.05;8.20;;;10.10;99.90;;;9.55;100.00;102614.72;4207749;28;20070;-72
2024/01/25 07:40:31;;;;;;;24.60;9.40;;;10.20;99.90;;;9.56;100.00;102605.84;4209271;28;20025;-72
2024/01/25 07:42:32;;;;;;;20.30;9.05;;;10.20;99.90;;;9.59;100.00;102613.53;4201749;28;20059;-72
2024/01/25 07:44:32;;;;;;;20.88;7.82;;;10.20;99.90;;;9.62;100.00;102607.22;4201641;28;20031;-72
2024/01/25 07:46:33;;;;;;;16.20;7.30;;;10.20;99.90;;;9.62;100.00;102604.56;4215935;28;20056;-72
2024/01/25 07:48:34;;;;;;;22.10;8.15;;;10.20;99.90;;;9.68;100.00;102597.09;4201570;28;20564;-72
2024/01/25 07:50:35;;;;;;;13.70;7.53;;;10.30;99.90;;;9.71;100.00;102596.88;4201483;28;20442;-72
2024/01/25 07:52:36;;;;;;;18.73;7.28;;;10.30;99.90;;;9.72;100.00;102603.84;4201609;28;20545;-72
2024/01/25 07:54:36;;;;;;;15.85;7.07;;;10.30;99.90;;;9.74;100.00;102607.22;4201761;28;20403;-72
2024/01/25 07:56:37;;;;;;;18.88;6.63;;;10.30;99.90;;;9.76;100.00;102621.16;4217377;28;20024;-72
2024/01/25 07:58:39;;;;;;;19.23;6.53;;;10.40;99.90;;;9.78;100.00;102615.75;4201678;28;20028;-73
2024/01/25 08:00:40;;;;;;;16.05;6.78;;;10.40;99.90;;;9.83;100.00;102611.00;4217062;28;20016;-72
2024/01/25 08:02:41;;;;;;;15.73;7.38;;;10.40;99.90;;;9.83;100.00;102595.19;4201866;28;20032;-72
2024/01/25 08:04:42;;;;;;;22.55;6.40;;;10.40;99.90;;;9.83;100.00;102590.78;4201477;28;20024;-72
2024/01/25 08:06:43;;;;;;;10.25;4.90;;;10.40;99.90;;;9.88;100.00;102596.59;4216405;28;20032;-72
2024/01/25 08:08:44;;;;;;;16.40;5.85;;;10.40;99.90;;;9.90;100.00;102602.59;4203244;28;20024;-72
2024/01/25 08:10:45;;;;;;;12.20;4.20;;;10.50;99.90;;;9.92;100.00;102594.56;4201620;28;20028;-72
2024/01/25 08:12:47;;;;;;;11.45;3.70;;;10.50;99.90;;;9.95;100.00;102594.34;4201737;28;20024;-72
2024/01/25 08:14:48;;;;;;;10.82;3.90;;;10.50;99.90;;;9.98;100.00;102588.88;4199895;28;20062;-72